Time;durP1;ratioP1;P1;durP2;ratioP2;P2;SDS_P1;SDS_P2;PMS_P1;PMS_P2;Temp;Humidity;BMP_temperature;BMP_pressure;BME280_temperature;BME280_humidity;BME280_pressure;Samples;Min_cycle;Max_cycle;Signal;HPM_P1;HPM_P2
2021/08/16 00:01:05;;;;;;;33.20;19.67;;;;;;;19.80;61.52;100195.97;1682634;85;21045;-67
2021/08/16 00:03:31;;;;;;;30.95;19.17;;;;;;;19.76;61.46;100189.80;1682798;85;21823;-67
2021/08/16 00:06:00;;;;;;;32.38;19.98;;;;;;;19.67;61.52;100183.70;1682600;84;20981;-68
2021/08/16 00:08:28;;;;;;;30.50;19.27;;;;;;;19.57;61.68;100179.97;1691166;82;21501;-68
2021/08/16 00:10:54;;;;;;;25.90;18.37;;;;;;;19.54;61.95;100182.16;1714221;82;21562;-68
2021/08/16 00:13:24;;;;;;;25.40;17.85;;;;;;;19.51;62.19;100178.52;1730093;82;20934;-68
2021/08/16 00:15:52;;;;;;;26.40;17.92;;;;;;;19.46;62.42;100173.70;1703209;84;20941;-67
2021/08/16 00:18:19;;;;;;;27.52;18.62;;;;;;;19.40;62.63;100177.97;1702868;83;21496;-67
2021/08/16 00:20:47;;;;;;;27.35;19.32;;;;;;;19.34;62.78;100174.67;1703198;84;21057;-67
2021/08/16 00:23:14;;;;;;;32.03;19.23;;;;;;;19.31;62.89;100175.05;1702751;83;21105;-67
2021/08/16 00:25:41;;;;;;;32.30;19.35;;;;;;;19.27;62.88;100181.77;1692534;82;20965;-67
2021/08/16 00:28:07;;;;;;;30.23;19.87;;;;;;;19.27;62.80;100180.94;1728182;82;22203;-67
2021/08/16 00:30:33;;;;;;;28.85;19.20;;;;;;;19.31;62.71;100179.58;1724114;82;20954;-67
2021/08/16 00:33:01;;;;;;;35.40;20.35;;;;;;;19.35;62.63;100184.37;1682859;84;20997;-68
2021/08/16 00:35:30;;;;;;;28.12;18.85;;;;;;;19.38;62.50;100177.30;1682676;84;21486;-67
2021/08/16 00:37:58;;;;;;;27.40;19.17;;;;;;;19.41;62.48;100182.81;1682880;85;21497;-67
2021/08/16 00:40:24;;;;;;;33.33;18.95;;;;;;;19.40;62.55;100186.52;1682650;85;22654;-67
2021/08/16 00:42:52;;;;;;;30.68;19.95;;;;;;;19.37;62.63;100184.17;1713511;82;20995;-67
2021/08/16 00:45:20;;;;;;;31.57;19.23;;;;;;;19.37;62.58;100181.50;1722549;82;21025;-67
2021/08/16 00:47:48;;;;;;;29.25;19.62;;;;;;;19.37;62.65;100181.50;1732559;82;21005;-69
2021/08/16 00:50:15;;;;;;;25.60;18.20;;;;;;;19.35;62.67;100182.20;1703797;83;21041;-68
2021/08/16 00:52:43;;;;;;;28.23;18.15;;;;;;;19.31;62.80;100185.77;1690990;83;21414;-67
2021/08/16 00:55:11;;;;;;;28.45;18.75;;;;;;;19.28;62.88;100183.42;1666934;85;21337;-67
2021/08/16 00:57:38;;;;;;;28.52;19.30;;;;;;;19.23;62.89;100181.81;1703032;82;21031;-68
2021/08/16 01:00:07;;;;;;;30.17;18.52;;;;;;;19.21;62.93;100182.52;1718367;82;20995;-68
2021/08/16 01:02:34;;;;;;;26.77;17.98;;;;;;;19.14;63.02;100184.25;1712260;82;21080;-67
2021/08/16 01:05:04;;;;;;;24.75;18.30;;;;;;;19.07;63.12;100184.64;1732557;82;20948;-67
2021/08/16 01:07:32;;;;;;;26.25;18.55;;;;;;;19.01;63.29;100180.00;1732433;82;20949;-67
2021/08/16 01:10:01;;;;;;;27.58;18.10;;;;;;;19.00;63.30;100183.19;1732758;82;20954;-67
2021/08/16 01:12:32;;;;;;;29.72;18.50;;;;;;;19.00;63.39;100182.36;1737987;82;21353;-67
2021/08/16 01:15:01;;;;;;;27.80;18.25;;;;;;;18.97;63.47;100173.36;1738234;81;21500;-68
2021/08/16 01:17:28;;;;;;;30.75;19.60;;;;;;;18.95;63.58;100178.06;1764558;81;22189;-68
2021/08/16 01:19:54;;;;;;;28.55;19.07;;;;;;;18.91;63.71;100178.91;1729588;83;21072;-67
2021/08/16 01:22:22;;;;;;;31.85;18.70;;;;;;;18.88;63.82;100181.45;1755601;81;21401;-67
2021/08/16 01:24:49;;;;;;;29.40;19.70;;;;;;;18.80;64.00;100180.69;1757093;81;21464;-67
2021/08/16 01:27:17;;;;;;;26.97;18.67;;;;;;;18.75;64.13;100183.91;1765478;81;20973;-68
2021/08/16 01:29:44;;;;;;;28.87;19.00;;;;;;;18.70;64.29;100186.28;1731167;81;22161;-67
2021/08/16 01:32:10;;;;;;;31.77;20.52;;;;;;;18.66;64.45;100179.64;1731360;82;21454;-67
2021/08/16 01:34:38;;;;;;;31.82;21.52;;;;;;;18.64;64.57;100181.63;1739129;82;21021;-67
2021/08/16 01:37:04;;;;;;;28.85;19.15;;;;;;;18.64;64.68;100176.28;1734976;81;20960;-67
2021/08/16 01:39:30;;;;;;;29.27;19.60;;;;;;;18.66;64.63;100180.97;1763998;81;20933;-68
2021/08/16 01:41:57;;;;;;;31.65;20.48;;;;;;;18.68;64.58;100170.92;1737680;80;22165;-68
2021/08/16 01:44:24;;;;;;;29.32;20.52;;;;;;;18.70;64.56;100174.23;1714651;82;20993;-67
2021/08/16 01:46:53;;;;;;;33.92;20.35;;;;;;;18.68;64.67;100174.10;1728786;81;20957;-67
2021/08/16 01:49:20;;;;;;;27.52;19.70;;;;;;;18.66;64.77;100180.97;1746215;81;20954;-67
2021/08/16 01:51:47;;;;;;;26.95;19.52;;;;;;;18.61;64.83;100189.98;1732446;82;21001;-67
2021/08/16 01:54:14;;;;;;;32.08;20.50;;;;;;;18.59;64.86;100190.68;1732669;82;21828;-68
2021/08/16 01:56:41;;;;;;;29.50;19.07;;;;;;;18.58;64.87;100183.16;1732418;82;21060;-67
2021/08/16 01:59:07;;;;;;;27.42;20.10;;;;;;;18.60;64.83;100180.30;1765457;81;21032;-67
2021/08/16 02:01:34;;;;;;;30.75;20.08;;;;;;;18.61;64.77;100173.94;1769598;80;20990;-67
2021/08/16 02:04:01;;;;;;;32.23;19.75;;;;;;;18.62;64.78;100176.11;1769599;81;20933;-67
2021/08/16 02:06:27;;;;;;;29.77;20.08;;;;;;;18.60;64.75;100169.61;1750483;81;21852;-68
2021/08/16 02:08:55;;;;;;;34.65;20.32;;;;;;;18.58;64.82;100171.12;1755084;80;20922;-68
2021/08/16 02:11:24;;;;;;;28.67;19.70;;;;;;;18.55;64.92;100170.66;1713911;82;21440;-67
2021/08/16 02:13:52;;;;;;;29.67;19.95;;;;;;;18.50;65.06;100173.02;1738938;81;21067;-68
2021/08/16 02:16:18;;;;;;;29.05;19.50;;;;;;;18.45;65.18;100164.72;1769904;81;20996;-68
2021/08/16 02:18:46;;;;;;;31.85;19.48;;;;;;;18.39;65.29;100170.26;1768471;80;21827;-67
2021/08/16 02:21:12;;;;;;;30.68;20.50;;;;;;;18.37;65.39;100170.95;1769782;81;20938;-67
2021/08/16 02:23:39;;;;;;;28.17;19.85;;;;;;;18.34;65.45;100169.97;1752258;81;21025;-68
2021/08/16 02:26:05;;;;;;;27.87;20.17;;;;;;;18.31;65.58;100176.48;1732836;82;21090;-67
2021/08/16 02:28:33;;;;;;;29.07;20.48;;;;;;;18.29;65.70;100179.02;1761923;81;20981;-67
2021/08/16 02:31:00;;;;;;;29.90;20.48;;;;;;;18.25;65.81;100178.55;1769626;81;21843;-67
2021/08/16 02:33:27;;;;;;;30.37;20.30;;;;;;;18.21;65.92;100180.39;1769479;81;21028;-67
2021/08/16 02:35:54;;;;;;;31.87;21.17;;;;;;;18.15;66.05;100174.44;1768430;81;20945;-68
2021/08/16 02:38:20;;;;;;;32.15;20.92;;;;;;;18.13;66.18;100181.77;1768298;80;21114;-67
2021/08/16 02:40:46;;;;;;;33.80;22.17;;;;;;;18.10;66.32;100188.31;1750877;80;21001;-67
2021/08/16 02:43:13;;;;;;;32.50;20.92;;;;;;;18.10;66.33;100188.31;1739091;82;21825;-67
2021/08/16 02:45:39;;;;;;;31.15;21.68;;;;;;;18.12;66.28;100188.95;1739243;82;20993;-67
2021/08/16 02:48:05;;;;;;;33.18;22.80;;;;;;;18.13;66.22;100183.11;1757027;81;21028;-67
2021/08/16 02:50:32;;;;;;;33.90;22.35;;;;;;;18.14;66.20;100190.11;1755721;81;21480;-68
2021/08/16 02:52:59;;;;;;;34.92;22.37;;;;;;;18.14;66.21;100195.46;1769524;81;20922;-67
2021/08/16 02:55:25;;;;;;;35.60;22.65;;;;;;;18.14;66.31;100199.47;1769937;81;22773;-67
2021/08/16 02:57:52;;;;;;;33.48;22.60;;;;;;;18.14;66.42;100196.30;1756746;81;20962;-67
2021/08/16 03:00:20;;;;;;;34.48;23.05;;;;;;;18.12;66.54;100194.30;1737406;82;20944;-67
2021/08/16 03:02:47;;;;;;;37.00;22.82;;;;;;;18.12;66.59;100199.65;1729034;83;21127;-67
2021/08/16 03:05:13;;;;;;;37.17;22.73;;;;;;;18.13;66.67;100195.13;1728920;82;20953;-67
2021/08/16 03:07:42;;;;;;;38.45;24.35;;;;;;;18.14;66.74;100202.14;1729344;82;20921;-67
2021/08/16 03:10:10;;;;;;;33.65;23.18;;;;;;;18.12;66.90;100200.98;1735671;81;20969;-67
2021/08/16 03:12:37;;;;;;;31.90;22.67;;;;;;;18.12;67.00;100198.82;1734176;80;21005;-67
2021/08/16 03:15:05;;;;;;;35.45;23.57;;;;;;;18.09;67.07;100197.34;1745903;81;20957;-67
2021/08/16 03:17:33;;;;;;;38.85;23.83;;;;;;;18.07;67.20;100207.38;1768899;80;20925;-67
2021/08/16 03:20:02;;;;;;;36.60;23.60;;;;;;;18.07;67.29;100206.04;1750794;80;21381;-67
2021/08/16 03:22:30;;;;;;;38.53;23.87;;;;;;;18.07;67.40;100206.55;1739320;82;20938;-67
2021/08/16 03:24:57;;;;;;;35.92;24.25;;;;;;;18.06;67.50;100200.37;1739356;82;20993;-67
2021/08/16 03:27:24;;;;;;;39.40;24.10;;;;;;;18.09;67.52;100207.20;1739458;82;20941;-67
2021/08/16 03:29:50;;;;;;;39.30;24.35;;;;;;;18.11;67.59;100210.02;1738510;81;21008;-67
2021/08/16 03:32:17;;;;;;;36.25;24.27;;;;;;;18.13;67.59;100214.67;1734439;82;22182;-67
2021/08/16 03:34:43;;;;;;;42.25;24.98;;;;;;;18.15;67.60;100214.02;1739467;82;20986;-67
2021/08/16 03:37:10;;;;;;;37.93;24.25;;;;;;;18.17;67.60;100212.00;1739286;82;20942;-67
2021/08/16 03:39:36;;;;;;;34.38;24.10;;;;;;;18.18;67.63;100216.84;1759902;80;20993;-68
2021/08/16 03:42:03;;;;;;;33.88;23.70;;;;;;;18.19;67.67;100219.34;1724531;82;20940;-68
2021/08/16 03:44:30;;;;;;;35.05;24.20;;;;;;;18.21;67.75;100223.16;1739190;82;22172;-67
2021/08/16 03:46:57;;;;;;;35.75;24.90;;;;;;;18.23;67.78;100219.30;1738836;81;20991;-68
2021/08/16 03:49:23;;;;;;;40.23;24.10;;;;;;;18.25;67.75;100217.81;1732115;82;20963;-67
2021/08/16 03:51:50;;;;;;;37.45;24.12;;;;;;;18.23;67.79;100216.63;1729462;81;21025;-69
2021/08/16 03:54:16;;;;;;;38.20;24.32;;;;;;;18.20;67.86;100215.66;1733673;82;21024;-67
2021/08/16 03:56:44;;;;;;;37.95;24.12;;;;;;;18.20;67.97;100214.82;1729060;82;21410;-67
2021/08/16 03:59:10;;;;;;;36.28;24.12;;;;;;;18.22;68.00;100213.63;1738531;82;21406;-69
2021/08/16 04:01:36;;;;;;;40.52;24.55;;;;;;;18.26;68.03;100214.97;1751640;81;21586;-68
2021/08/16 04:04:03;;;;;;;34.40;23.18;;;;;;;18.29;68.02;100215.94;1739227;81;21438;-67
2021/08/16 04:06:30;;;;;;;44.58;23.38;;;;;;;18.32;68.02;100222.77;1738551;82;20954;-69
2021/08/16 04:08:57;;;;;;;41.42;24.50;;;;;;;18.36;68.04;100220.59;1739053;81;21835;-69
2021/08/16 04:11:25;;;;;;;39.05;22.65;;;;;;;18.37;68.08;100224.42;1740737;81;21068;-69
2021/08/16 04:13:51;;;;;;;35.55;22.82;;;;;;;18.41;68.09;100231.08;1769896;80;20941;-69
2021/08/16 04:16:17;;;;;;;36.45;22.85;;;;;;;18.47;68.09;100230.38;1769902;80;21064;-69
2021/08/16 04:18:45;;;;;;;36.00;22.52;;;;;;;18.52;68.03;100225.32;1769686;81;21017;-69
2021/08/16 04:21:13;;;;;;;37.50;23.25;;;;;;;18.59;67.96;100222.78;1769758;81;21413;-71
2021/08/16 04:23:40;;;;;;;31.35;21.90;;;;;;;18.66;67.93;100222.44;1735287;81;21349;-70
2021/08/16 04:26:07;;;;;;;34.43;23.00;;;;;;;18.71;67.82;100213.36;1738127;81;21078;-69
2021/08/16 04:28:35;;;;;;;35.20;22.02;;;;;;;18.77;67.74;100214.50;1748414;81;21088;-70
2021/08/16 04:31:01;;;;;;;31.97;21.02;;;;;;;18.82;67.66;100215.64;1769678;80;20941;-70
2021/08/16 04:33:27;;;;;;;31.45;20.12;;;;;;;18.88;67.58;100216.75;1736345;81;21788;-70
2021/08/16 04:35:54;;;;;;;31.62;20.25;;;;;;;18.94;67.38;100219.23;1729428;83;20935;-69
2021/08/16 04:38:22;;;;;;;34.05;20.12;;;;;;;19.00;67.28;100222.50;1729563;83;21428;-69
2021/08/16 04:40:51;;;;;;;29.35;17.70;;;;;;;19.06;67.07;100226.64;1748896;81;20954;-71
2021/08/16 04:43:17;;;;;;;31.52;20.02;;;;;;;19.15;66.83;100227.41;1747975;81;21488;-69
2021/08/16 04:45:45;;;;;;;30.17;19.90;;;;;;;19.26;66.58;100222.12;1739142;81;20996;-68
2021/08/16 04:48:12;;;;;;;28.32;20.02;;;;;;;19.36;66.39;100222.19;1739126;82;20946;-69
2021/08/16 04:50:38;;;;;;;26.75;19.02;;;;;;;19.48;66.28;100224.41;1737470;81;20996;-69
2021/08/16 04:53:06;;;;;;;31.80;18.77;;;;;;;19.60;66.24;100227.84;1729387;82;20992;-70
2021/08/16 04:55:35;;;;;;;31.90;18.67;;;;;;;19.71;65.91;100227.89;1729143;82;21463;-70
2021/08/16 04:58:01;;;;;;;28.00;18.75;;;;;;;19.84;65.63;100226.73;1725464;82;22506;-69
2021/08/16 05:00:28;;;;;;;30.68;18.82;;;;;;;19.97;65.40;100228.23;1752861;81;21028;-69
2021/08/16 05:02:55;;;;;;;29.55;17.60;;;;;;;20.09;65.31;100223.25;1714157;80;21418;-69
2021/08/16 05:05:26;;;;;;;27.67;18.87;;;;;;;20.21;65.20;100227.62;1720544;82;21422;-69
2021/08/16 05:07:54;;;;;;;29.30;19.17;;;;;;;20.34;65.13;100222.91;1732890;82;20950;-69
2021/08/16 05:10:22;;;;;;;33.20;19.07;;;;;;;20.47;65.02;100222.60;1725903;80;21847;-68
2021/08/16 05:12:51;;;;;;;27.65;18.35;;;;;;;20.61;64.74;100225.41;1730163;81;21020;-69
2021/08/16 05:15:18;;;;;;;25.55;17.37;;;;;;;20.73;64.67;100229.25;1730847;82;21037;-70
2021/08/16 05:17:47;;;;;;;26.42;17.82;;;;;;;20.85;64.51;100229.08;1732823;82;20989;-71
2021/08/16 05:20:15;;;;;;;27.42;17.05;;;;;;;20.96;64.30;100229.91;1729985;82;20951;-69
2021/08/16 05:22:43;;;;;;;26.97;16.15;;;;;;;21.07;64.03;100222.66;1729491;82;22179;-74
2021/08/16 05:25:12;;;;;;;24.87;16.75;;;;;;;21.19;63.61;100224.82;1729412;83;21388;-71
2021/08/16 05:27:39;;;;;;;28.90;15.85;;;;;;;21.30;63.11;100225.66;1729295;83;21008;-69
2021/08/16 05:30:08;;;;;;;29.48;16.32;;;;;;;21.41;62.78;100223.25;1733110;81;21033;-70
2021/08/16 05:32:37;;;;;;;25.70;15.25;;;;;;;21.56;62.25;100225.02;1739858;81;20961;-70
2021/08/16 05:35:08;;;;;;;26.10;14.40;;;;;;;21.69;61.59;100220.55;1730018;80;21803;-70
2021/08/16 05:37:35;;;;;;;22.77;14.85;;;;;;;21.84;60.92;100225.81;1732642;82;21437;-69
2021/08/16 05:40:02;;;;;;;26.77;14.75;;;;;;;21.97;60.57;100223.70;1737840;82;20860;-71
2021/08/16 05:42:29;;;;;;;25.00;14.73;;;;;;;22.13;60.24;100234.68;1739177;82;20992;-70
2021/08/16 05:44:55;;;;;;;22.58;14.13;;;;;;;22.24;59.76;100228.72;1739221;82;21029;-70
2021/08/16 05:47:22;;;;;;;20.12;13.25;;;;;;;22.36;59.34;100226.27;1740323;81;21791;-71
2021/08/16 05:49:48;;;;;;;22.07;13.68;;;;;;;22.50;59.14;100222.60;1732574;82;20993;-71
2021/08/16 05:52:14;;;;;;;17.67;12.53;;;;;;;22.64;58.44;100219.41;1733915;82;20967;-71
2021/08/16 05:54:41;;;;;;;22.00;12.00;;;;;;;22.77;58.16;100219.42;1739880;82;20967;-70
2021/08/16 05:57:08;;;;;;;25.57;12.95;;;;;;;22.90;57.67;100218.66;1739143;82;21493;-71
2021/08/16 05:59:34;;;;;;;22.25;12.53;;;;;;;23.02;57.26;100212.45;1737900;82;22573;-71
2021/08/16 06:02:00;;;;;;;17.12;10.88;;;;;;;23.18;56.47;100219.82;1737992;82;21470;-71
2021/08/16 06:04:27;;;;;;;19.95;12.43;;;;;;;23.31;55.42;100218.45;1735688;82;21053;-70
2021/08/16 06:06:53;;;;;;;24.77;12.05;;;;;;;23.46;55.06;100215.55;1731832;82;21104;-71
2021/08/16 06:09:20;;;;;;;21.52;12.28;;;;;;;23.59;54.98;100208.28;1732015;82;21085;-70
2021/08/16 06:11:48;;;;;;;19.50;11.12;;;;;;;23.74;54.43;100218.84;1731694;82;21032;-70
2021/08/16 06:14:15;;;;;;;19.12;11.28;;;;;;;23.87;53.89;100212.05;1731442;82;21497;-71
2021/08/16 06:16:41;;;;;;;16.60;11.55;;;;;;;24.00;53.26;100209.82;1731619;82;21044;-70
2021/08/16 06:19:08;;;;;;;21.20;11.00;;;;;;;24.13;53.28;100208.95;1732327;82;21078;-71
2021/08/16 06:21:42;;;;;;;21.20;11.12;;;;;;;24.27;52.89;100206.49;1699878;83;21033;-70
2021/08/16 06:24:06;;;;;;;19.98;9.88;;;;;;;24.40;52.33;100205.09;1673775;85;21738;-70
2021/08/16 06:26:33;;;;;;;13.03;9.58;;;;;;;24.55;51.73;100209.69;1673549;85;21072;-70
2021/08/16 06:29:00;;;;;;;15.40;9.55;;;;;;;24.67;51.13;100211.17;1731427;82;21092;-71
2021/08/16 06:31:29;;;;;;;18.70;9.63;;;;;;;24.81;50.93;100215.45;1731464;82;20994;-71
2021/08/16 06:33:55;;;;;;;17.90;8.38;;;;;;;24.94;50.59;100203.71;1737241;82;21024;-71
2021/08/16 06:36:22;;;;;;;17.12;8.65;;;;;;;25.07;48.94;100213.61;1738184;82;21870;-71
2021/08/16 06:38:49;;;;;;;13.68;8.30;;;;;;;25.21;48.76;100217.05;1732762;82;20966;-71
2021/08/16 06:41:16;;;;;;;12.18;7.37;;;;;;;25.32;48.36;100210.39;1731566;82;21024;-71
2021/08/16 06:43:45;;;;;;;11.85;8.45;;;;;;;25.43;47.42;100210.17;1707942;82;20997;-72
2021/08/16 06:46:13;;;;;;;17.98;8.08;;;;;;;25.55;48.47;100212.97;1704894;83;22064;-72
2021/08/16 06:48:40;;;;;;;14.83;6.75;;;;;;;25.68;48.48;100212.84;1704715;84;21813;-73
2021/08/16 06:51:07;;;;;;;21.07;8.08;;;;;;;25.83;46.73;100212.49;1704376;84;21063;-72
2021/08/16 06:53:33;;;;;;;14.83;7.90;;;;;;;25.96;46.02;100213.68;1703972;84;21528;-72
2021/08/16 06:56:00;;;;;;;14.07;6.97;;;;;;;26.07;45.88;100217.00;1726934;81;21710;-72
2021/08/16 06:58:28;;;;;;;12.28;6.97;;;;;;;26.17;45.41;100218.65;1728971;82;20987;-72
2021/08/16 07:00:58;;;;;;;9.60;6.62;;;;;;;26.28;44.80;100224.34;1741026;81;21451;-72
2021/08/16 07:03:24;;;;;;;13.15;7.35;;;;;;;26.38;44.55;100223.30;1750492;80;20979;-71
2021/08/16 07:05:51;;;;;;;11.25;7.25;;;;;;;26.48;44.85;100216.28;1739334;82;21002;-71
2021/08/16 07:08:18;;;;;;;12.23;7.55;;;;;;;26.61;43.97;100219.84;1734005;82;20993;-72
2021/08/16 07:10:47;;;;;;;13.38;6.90;;;;;;;26.69;43.46;100223.59;1733862;82;21024;-72
2021/08/16 07:13:16;;;;;;;15.20;6.53;;;;;;;26.73;43.25;100218.85;1730517;82;21538;-71
2021/08/16 07:15:43;;;;;;;10.78;7.15;;;;;;;26.82;43.10;100220.67;1737491;81;20953;-72
2021/08/16 07:18:09;;;;;;;16.60;7.50;;;;;;;26.91;42.99;100222.52;1735821;82;20989;-71
2021/08/16 07:20:36;;;;;;;11.35;7.17;;;;;;;26.97;42.71;100222.95;1728789;82;21071;-71
2021/08/16 07:23:03;;;;;;;12.43;7.55;;;;;;;26.99;42.98;100226.25;1750900;80;21032;-69
2021/08/16 07:25:30;;;;;;;13.38;7.17;;;;;;;27.10;43.12;100230.89;1738047;82;21820;-71
2021/08/16 07:27:56;;;;;;;15.50;6.55;;;;;;;27.24;42.96;100232.88;1724268;82;21014;-71
2021/08/16 07:30:23;;;;;;;13.78;7.20;;;;;;;27.39;42.95;100235.94;1703308;82;20961;-71
2021/08/16 07:32:49;;;;;;;13.68;7.87;;;;;;;27.50;42.59;100230.21;1736952;81;21032;-73
2021/08/16 07:35:15;;;;;;;13.85;7.30;;;;;;;27.60;42.91;100232.66;1733776;82;21058;-73
2021/08/16 07:37:42;;;;;;;14.03;6.83;;;;;;;27.73;42.46;100234.84;1739670;81;22658;-74
2021/08/16 07:40:10;;;;;;;13.75;6.85;;;;;;;27.82;41.10;100219.85;1740491;80;21085;-75
2021/08/16 07:42:39;;;;;;;13.68;7.03;;;;;;;27.83;41.01;100214.18;1740714;80;21039;-76
2021/08/16 07:45:08;;;;;;;18.62;12.37;;;;;;;27.89;41.16;100211.02;1745597;80;21044;-73
2021/08/16 07:47:34;;;;;;;27.75;17.17;;;;;;;27.99;42.26;100210.41;1743447;80;21038;-72
2021/08/16 07:50:00;;;;;;;41.85;20.80;;;;;;;28.11;43.95;100218.02;1751793;80;22813;-72
2021/08/16 07:52:28;;;;;;;31.95;19.90;;;;;;;28.11;44.23;100218.02;1747948;80;20925;-72
2021/08/16 07:54:55;;;;;;;24.52;12.90;;;;;;;28.11;44.67;100221.55;1734720;81;21420;-72
2021/08/16 07:57:22;;;;;;;17.67;9.38;;;;;;;28.15;43.29;100218.63;1744649;80;21000;-72
2021/08/16 07:59:48;;;;;;;23.40;8.50;;;;;;;28.24;42.81;100209.58;1734285;80;21503;-72
2021/08/16 08:02:15;;;;;;;21.90;11.70;;;;;;;28.35;41.47;100204.66;1729737;82;22663;-72
2021/08/16 08:04:41;;;;;;;19.92;10.15;;;;;;;28.46;41.28;100206.50;1737209;82;21401;-72
2021/08/16 08:07:08;;;;;;;13.13;8.40;;;;;;;28.53;40.82;100208.25;1745480;80;21001;-72
2021/08/16 08:09:36;;;;;;;18.45;10.00;;;;;;;28.62;40.71;100214.94;1748527;80;21075;-72
2021/08/16 08:12:03;;;;;;;26.48;10.45;;;;;;;28.69;40.32;100203.39;1743669;80;21416;-72
2021/08/16 08:14:31;;;;;;;26.93;13.50;;;;;;;28.73;38.97;100209.97;1740768;80;22638;-72
2021/08/16 08:16:58;;;;;;;15.05;9.15;;;;;;;28.74;38.97;100210.26;1734938;80;21436;-72
2021/08/16 08:19:24;;;;;;;15.83;7.62;;;;;;;28.78;38.88;100219.05;1759825;80;21459;-72
2021/08/16 08:21:52;;;;;;;13.75;7.78;;;;;;;28.88;38.12;100215.69;1735260;82;21390;-72
2021/08/16 08:24:18;;;;;;;29.60;14.73;;;;;;;28.92;37.91;100205.98;1748823;80;21338;-72
2021/08/16 08:26:45;;;;;;;16.12;9.18;;;;;;;29.03;39.11;100212.41;1753829;80;22844;-71
2021/08/16 08:29:11;;;;;;;11.57;6.28;;;;;;;29.19;38.35;100213.49;1731074;80;21380;-71
2021/08/16 08:31:38;;;;;;;24.72;7.03;;;;;;;29.27;38.02;100213.08;1751236;80;20985;-72
2021/08/16 08:34:04;;;;;;;26.00;7.60;;;;;;;29.34;37.40;100206.94;1749728;80;20952;-72
2021/08/16 08:36:31;;;;;;;13.83;6.75;;;;;;;29.45;37.70;100213.35;1738195;80;20984;-73
2021/08/16 08:38:58;;;;;;;25.15;10.15;;;;;;;29.56;37.75;100214.64;1741888;80;21900;-73
2021/08/16 08:41:24;;;;;;;25.90;13.48;;;;;;;29.69;36.86;100208.53;1748739;80;20945;-73
2021/08/16 08:43:50;;;;;;;26.55;11.65;;;;;;;29.77;37.13;100213.55;1759297;80;20993;-73
2021/08/16 08:46:18;;;;;;;20.27;10.30;;;;;;;29.83;36.64;100209.30;1751911;80;21066;-75
2021/08/16 08:48:45;;;;;;;13.15;6.67;;;;;;;29.88;36.40;100201.71;1721154;82;21570;-73
2021/08/16 08:51:12;;;;;;;18.05;6.10;;;;;;;29.96;34.71;100204.00;1737851;80;22476;-73
2021/08/16 08:53:39;;;;;;;13.45;6.20;;;;;;;29.99;35.51;100207.56;1744581;80;20964;-73
2021/08/16 08:56:07;;;;;;;10.03;5.97;;;;;;;30.06;35.79;100197.84;1749476;80;21064;-73
2021/08/16 08:58:33;;;;;;;12.70;5.85;;;;;;;30.14;36.19;100198.26;1756285;80;20996;-72
2021/08/16 09:00:59;;;;;;;9.25;5.22;;;;;;;30.21;35.41;100195.34;1736029;80;21052;-73
2021/08/16 09:03:26;;;;;;;14.05;5.58;;;;;;;30.27;35.71;100196.20;1711650;82;21784;-72
2021/08/16 09:05:54;;;;;;;10.72;5.35;;;;;;;30.32;35.70;100192.19;1738949;82;21049;-73
2021/08/16 09:08:27;;;;;;;9.43;5.53;;;;;;;30.41;36.10;100197.47;1735865;82;20957;-72
2021/08/16 09:11:06;;;;;;;8.93;5.45;;;;;;;30.47;34.49;100195.06;1733696;82;21074;-73
2021/08/16 09:13:32;;;;;;;9.28;5.25;;;;;;;30.54;35.50;100201.13;1742610;81;20957;-73
2021/08/16 09:16:09;;;;;;;15.13;5.15;;;;;;;30.66;35.39;100199.09;1736209;81;21852;-72
2021/08/16 09:18:35;;;;;;;9.58;5.08;;;;;;;30.78;35.98;100197.02;1707919;82;20982;-72
2021/08/16 09:21:02;;;;;;;14.43;5.55;;;;;;;30.95;34.18;100199.62;1734455;82;20945;-73
2021/08/16 09:23:40;;;;;;;10.23;5.50;;;;;;;31.08;36.10;100194.80;1740436;81;21641;-72
2021/08/16 09:26:07;;;;;;;9.85;5.20;;;;;;;31.18;34.64;100195.72;1718496;82;21042;-72
2021/08/16 09:28:33;;;;;;;7.80;5.70;;;;;;;31.18;34.64;100195.72;1731992;82;21843;-70
2021/08/16 09:31:12;;;;;;;11.97;5.53;;;;;;;31.21;33.84;100195.77;1711044;82;20993;-72
2021/08/16 09:33:39;;;;;;;11.25;5.95;;;;;;;31.14;35.10;100197.31;1733908;80;21018;-71
2021/08/16 09:36:05;;;;;;;8.25;5.33;;;;;;;31.19;33.78;100200.09;1741918;81;21619;-71
2021/08/16 09:38:36;;;;;;;10.60;6.10;;;;;;;31.17;33.62;100195.41;1745099;80;21355;-71
2021/08/16 09:41:05;;;;;;;8.03;5.53;;;;;;;31.16;34.05;100201.95;1707570;83;21820;-71
2021/08/16 09:43:32;;;;;;;13.53;5.70;;;;;;;31.18;33.43;100197.09;1749826;80;20955;-71
2021/08/16 09:46:00;;;;;;;9.35;5.58;;;;;;;31.21;33.37;100187.58;1735233;82;21045;-71
2021/08/16 09:48:27;;;;;;;8.38;4.95;;;;;;;31.25;32.91;100191.41;1724576;82;21011;-70
2021/08/16 09:50:55;;;;;;;10.38;5.10;;;;;;;31.28;34.18;100188.18;1734591;82;20957;-70
2021/08/16 09:53:24;;;;;;;9.28;5.58;;;;;;;31.41;34.10;100188.25;1732259;81;21670;-72
2021/08/16 09:56:05;;;;;;;10.82;5.58;;;;;;;31.49;33.60;100182.30;1729749;82;21160;-71
2021/08/16 09:58:24;;;;;;;9.95;5.80;;;;;;;31.62;33.66;100174.44;1729222;82;20950;-72
2021/08/16 10:00:52;;;;;;;10.38;5.72;;;;;;;31.77;33.43;100168.28;1724367;82;21025;-70
2021/08/16 10:03:18;;;;;;;15.40;5.97;;;;;;;31.82;33.31;100171.01;1730879;82;21401;-72
2021/08/16 10:05:49;;;;;;;9.38;6.00;;;;;;;31.81;33.39;100173.47;1739215;81;21059;-72
2021/08/16 10:08:23;;;;;;;10.43;5.58;;;;;;;31.83;33.28;100165.00;1732633;81;21107;-72
2021/08/16 10:10:56;;;;;;;7.97;5.67;;;;;;;31.89;33.86;100168.86;1744750;81;21064;-71
2021/08/16 10:13:23;;;;;;;10.70;5.67;;;;;;;32.06;34.03;100164.55;1731254;81;20954;-71
2021/08/16 10:15:55;;;;;;;9.23;5.78;;;;;;;32.17;32.97;100168.14;1709097;82;21013;-70
2021/08/16 10:18:26;;;;;;;8.18;5.55;;;;;;;32.27;32.75;100172.80;1725404;82;21759;-71
2021/08/16 10:20:52;;;;;;;9.88;5.60;;;;;;;32.23;32.21;100166.22;1727748;82;21163;-71
2021/08/16 10:23:25;;;;;;;9.20;5.25;;;;;;;32.17;32.16;100169.50;1726259;82;21059;-72
2021/08/16 10:25:55;;;;;;;13.45;5.37;;;;;;;32.15;32.47;100162.94;1729718;82;21044;-70
2021/08/16 10:28:27;;;;;;;8.90;5.50;;;;;;;32.21;32.37;100159.66;1721322;82;21079;-69
2021/08/16 10:30:56;;;;;;;6.10;5.10;;;;;;;32.35;33.08;100162.20;1728775;82;22473;-70
2021/08/16 10:33:23;;;;;;;9.30;5.65;;;;;;;32.56;32.26;100163.03;1734263;82;21072;-68
2021/08/16 10:35:50;;;;;;;11.73;6.60;;;;;;;32.71;31.05;100153.45;1733692;82;21443;-69
2021/08/16 10:38:18;;;;;;;9.20;5.40;;;;;;;32.81;33.56;100154.00;1733860;82;21009;-69
2021/08/16 10:40:57;;;;;;;6.62;5.12;;;;;;;32.83;32.10;100153.23;1734060;82;20961;-69
2021/08/16 10:43:33;;;;;;;8.73;5.62;;;;;;;32.86;31.62;100150.48;1733931;82;22235;-70
2021/08/16 10:46:01;;;;;;;9.38;5.37;;;;;;;33.11;31.46;100150.47;1733375;82;20925;-69
2021/08/16 10:48:31;;;;;;;8.58;5.40;;;;;;;33.30;30.03;100150.16;1679869;85;21023;-70
2021/08/16 10:51:08;;;;;;;7.15;4.78;;;;;;;33.42;30.62;100142.22;1712746;83;21319;-70
2021/08/16 10:53:52;;;;;;;8.58;4.95;;;;;;;33.64;29.30;100140.48;1688032;84;21049;-70
2021/08/16 10:56:20;;;;;;;8.23;5.12;;;;;;;33.64;29.48;100140.48;1725075;82;21768;-69
2021/08/16 10:58:47;;;;;;;10.18;5.20;;;;;;;33.72;29.87;100137.98;1723007;82;20954;-69
2021/08/16 11:01:27;;;;;;;15.58;5.53;;;;;;;33.81;29.76;100138.23;1725967;82;20962;-70
2021/08/16 11:04:02;;;;;;;13.08;4.92;;;;;;;33.92;28.85;100139.84;1706303;83;21014;-70
2021/08/16 11:06:28;;;;;;;8.83;5.90;;;;;;;34.05;29.33;100137.84;1728371;82;21481;-69
2021/08/16 11:09:01;;;;;;;8.98;6.08;;;;;;;34.23;30.68;100132.80;1678065;83;21781;-70
2021/08/16 11:11:33;;;;;;;9.73;5.62;;;;;;;34.36;31.84;100133.00;1689641;84;21041;-70
2021/08/16 11:14:11;;;;;;;10.13;6.10;;;;;;;34.39;32.06;100133.01;1703087;83;21505;-70
2021/08/16 11:16:47;;;;;;;11.68;5.85;;;;;;;34.34;31.90;100133.81;1661820;85;21045;-70